Time;durP1;ratioP1;P1;durP2;ratioP2;P2;SDS_P1;SDS_P2;PMS_P1;PMS_P2;Temp;Humidity;BMP_temperature;BMP_pressure;BME280_temperature;BME280_humidity;BME280_pressure;Samples;Min_cycle;Max_cycle;Signal;HPM_P1;HPM_P2
2021/05/09 00:01:30;;;;;;;11.70;8.50;;;;;;;3.40;76.41;100915.73;104321;1104;78532;-73
2021/05/09 00:03:35;;;;;;;10.60;7.60;;;;;;;3.33;76.27;100903.86;104300;1104;78264;-60
2021/05/09 00:05:41;;;;;;;11.40;8.00;;;;;;;3.27;76.30;100904.41;104331;1104;78435;-60
2021/05/09 00:07:47;;;;;;;10.90;7.10;;;;;;;3.23;76.40;100906.48;104359;1104;79667;-60
2021/05/09 00:09:52;;;;;;;12.50;7.80;;;;;;;3.21;76.42;100904.92;104362;1097;77428;-72
2021/05/09 00:11:58;;;;;;;12.60;8.00;;;;;;;3.20;76.56;100908.55;104358;1104;79445;-71
2021/05/09 00:14:06;;;;;;;11.80;7.90;;;;;;;3.15;76.27;100910.77;104341;1104;78014;-70
2021/05/09 00:16:13;;;;;;;10.50;7.70;;;;;;;3.08;76.56;100899.75;104332;1104;78235;-72
2021/05/09 00:18:19;;;;;;;12.30;8.30;;;;;;;3.03;76.75;100895.77;104367;1104;78584;-71
2021/05/09 00:20:24;;;;;;;14.10;8.30;;;;;;;3.04;76.90;100902.81;104400;1104;76945;-61
2021/05/09 00:22:33;;;;;;;11.00;8.20;;;;;;;3.03;76.80;100901.97;104366;1104;78267;-60
2021/05/09 00:24:39;;;;;;;11.70;7.90;;;;;;;2.95;76.94;100894.61;104354;1104;77953;-71
2021/05/09 00:26:45;;;;;;;12.50;8.40;;;;;;;2.89;76.98;100894.27;104370;1104;77127;-72
2021/05/09 00:28:50;;;;;;;11.30;7.90;;;;;;;2.81;76.87;100891.39;104410;1104;76956;-72
2021/05/09 00:30:56;;;;;;;10.50;7.40;;;;;;;2.75;76.87;100898.08;104332;1104;78014;-71
2021/05/09 00:33:02;;;;;;;11.80;7.80;;;;;;;2.70;77.05;100892.29;104361;1104;77725;-71
2021/05/09 00:35:13;;;;;;;10.70;7.60;;;;;;;2.65;77.17;100899.83;104382;1097;79075;-72
2021/05/09 00:37:21;;;;;;;11.30;8.40;;;;;;;2.62;77.25;100892.08;104412;1104;77555;-71
2021/05/09 00:39:27;;;;;;;11.20;7.70;;;;;;;2.58;77.39;100901.32;104352;1096;79439;-70
2021/05/09 00:41:35;;;;;;;11.30;7.80;;;;;;;2.62;77.35;100912.56;104334;1104;79239;-70
2021/05/09 00:43:41;;;;;;;10.80;7.80;;;;;;;2.58;77.42;100911.98;104385;1104;79346;-72
2021/05/09 00:45:47;;;;;;;12.60;7.80;;;;;;;2.62;77.38;100905.41;104360;1097;77154;-71
2021/05/09 00:47:56;;;;;;;12.40;7.60;;;;;;;2.66;77.43;100898.02;104346;1104;78963;-71
2021/05/09 00:50:04;;;;;;;9.70;7.60;;;;;;;2.66;77.67;100903.34;104387;1097;79681;-60
2021/05/09 00:52:15;;;;;;;12.20;8.40;;;;;;;2.70;77.96;100902.95;104400;1104;77207;-61
2021/05/09 00:54:26;;;;;;;11.70;8.50;;;;;;;2.75;78.00;100897.23;104356;1097;79349;-60
2021/05/09 00:56:35;;;;;;;13.90;8.80;;;;;;;2.81;78.06;100902.06;104359;1104;77299;-60
2021/05/09 00:58:46;;;;;;;12.40;8.30;;;;;;;2.81;77.92;100904.73;104349;1104;79372;-60
2021/05/09 01:00:52;;;;;;;12.80;7.70;;;;;;;2.76;77.83;100899.78;104380;1096;77876;-60
2021/05/09 01:03:02;;;;;;;13.60;7.70;;;;;;;2.73;77.74;100899.19;104421;1104;78995;-60
2021/05/09 01:05:11;;;;;;;12.00;7.50;;;;;;;2.72;77.68;100898.34;104388;1096;79068;-60
2021/05/09 01:07:17;;;;;;;13.30;7.70;;;;;;;2.69;77.83;100892.43;104379;1104;79422;-60
2021/05/09 01:09:23;;;;;;;12.00;8.30;;;;;;;2.69;77.82;100895.91;104300;1104;77596;-70
2021/05/09 01:11:31;;;;;;;14.20;9.20;;;;;;;2.77;78.00;100900.64;104381;1104;78466;-70
2021/05/09 01:13:37;;;;;;;15.40;8.50;;;;;;;2.78;78.15;100894.31;104412;1104;78508;-71
2021/05/09 01:15:43;;;;;;;10.50;7.60;;;;;;;2.79;77.97;100893.34;104348;1104;77321;-70
2021/05/09 01:17:49;;;;;;;12.00;8.30;;;;;;;2.80;78.09;100895.05;104402;1104;77472;-71
2021/05/09 01:20:00;;;;;;;12.90;8.10;;;;;;;2.90;78.23;100886.15;104330;1104;78249;-72
2021/05/09 01:22:06;;;;;;;15.60;10.00;;;;;;;2.95;78.61;100888.42;104362;1104;77510;-72
2021/05/09 01:24:15;;;;;;;14.20;9.70;;;;;;;3.08;78.04;100891.74;104367;1096;79186;-71
2021/05/09 01:26:20;;;;;;;13.40;9.30;;;;;;;3.12;78.06;100895.01;104381;1096;79758;-71
2021/05/09 01:28:26;;;;;;;16.50;9.50;;;;;;;3.11;78.22;100894.16;104381;1104;77979;-71
2021/05/09 01:30:35;;;;;;;17.40;10.40;;;;;;;3.12;77.94;100895.01;104374;1104;77543;-61
2021/05/09 01:32:41;;;;;;;14.50;10.50;;;;;;;3.21;77.94;100902.25;104393;1104;78557;-61
2021/05/09 01:34:47;;;;;;;21.60;9.80;;;;;;;3.26;77.89;100902.70;104353;1096;78898;-61
2021/05/09 01:36:52;;;;;;;18.00;11.00;;;;;;;3.39;78.10;100906.02;104364;1104;78812;-61
2021/05/09 01:38:58;;;;;;;20.00;11.90;;;;;;;3.44;77.83;100920.66;104371;1104;77320;-60
2021/05/09 01:41:05;;;;;;;17.30;11.30;;;;;;;3.45;77.52;100914.36;104366;1099;79239;-71
2021/05/09 01:43:14;;;;;;;17.20;10.70;;;;;;;3.42;77.63;100911.95;104346;1104;79593;-73
2021/05/09 01:45:19;;;;;;;18.10;11.20;;;;;;;3.44;77.59;100922.48;104359;1104;79269;-60
2021/05/09 01:47:26;;;;;;;15.80;10.20;;;;;;;3.43;77.40;100924.30;104376;1096;77066;-60
2021/05/09 01:49:32;;;;;;;14.70;10.10;;;;;;;3.35;77.37;100926.78;104345;1104;78436;-60
2021/05/09 01:51:37;;;;;;;13.60;8.80;;;;;;;3.21;77.49;100920.94;104368;1104;78248;-60
2021/05/09 01:53:48;;;;;;;13.30;8.60;;;;;;;3.11;77.18;100925.33;104387;1104;78910;-60
2021/05/09 01:55:53;;;;;;;11.40;7.90;;;;;;;3.02;77.38;100926.13;104381;1104;77974;-70
2021/05/09 01:57:59;;;;;;;12.90;8.00;;;;;;;2.92;77.38;100928.70;104378;1104;79832;-70
2021/05/09 02:00:11;;;;;;;12.80;8.00;;;;;;;2.85;77.53;100928.38;104339;1104;77849;-70
2021/05/09 02:02:17;;;;;;;13.90;10.00;;;;;;;2.79;77.56;100934.22;104390;1104;76658;-70
2021/05/09 02:04:22;;;;;;;17.20;10.60;;;;;;;2.76;77.29;100937.13;104361;1104;76874;-70
2021/05/09 02:06:31;;;;;;;16.60;10.70;;;;;;;2.75;77.58;100932.77;104328;1104;77415;-70
2021/05/09 02:08:36;;;;;;;13.20;9.50;;;;;;;2.73;77.57;100933.86;104367;1104;79437;-72
2021/05/09 02:10:42;;;;;;;17.70;11.70;;;;;;;2.75;77.45;100932.77;104355;1104;78520;-60
2021/05/09 02:12:52;;;;;;;17.60;11.50;;;;;;;2.80;77.78;100935.07;104381;1104;77919;-60
2021/05/09 02:15:01;;;;;;;14.90;10.10;;;;;;;2.79;77.85;100930.70;104402;1104;77537;-60
2021/05/09 02:17:07;;;;;;;20.10;12.10;;;;;;;2.78;77.64;100932.52;104398;1104;78051;-59
2021/05/09 02:19:12;;;;;;;18.10;11.90;;;;;;;2.81;77.80;100936.74;104340;1104;78869;-60
2021/05/09 02:21:18;;;;;;;24.20;12.20;;;;;;;2.81;77.64;100940.27;104377;1104;79667;-60
2021/05/09 02:23:23;;;;;;;18.00;12.60;;;;;;;2.87;77.39;100945.10;104370;1104;77361;-60
2021/05/09 02:25:29;;;;;;;17.50;12.00;;;;;;;2.85;77.92;100936.38;104344;1104;78539;-60
2021/05/09 02:27:35;;;;;;;18.00;11.50;;;;;;;2.89;77.63;100936.95;104397;1104;77169;-60
2021/05/09 02:29:44;;;;;;;16.20;11.60;;;;;;;2.87;77.67;100938.91;104349;1104;79473;-71
2021/05/09 02:31:49;;;;;;;23.30;11.70;;;;;;;2.84;77.61;100933.83;104401;1104;78798;-71
2021/05/09 02:33:55;;;;;;;18.30;13.20;;;;;;;2.86;77.79;100942.54;104367;1104;78052;-72
2021/05/09 02:36:01;;;;;;;21.50;12.80;;;;;;;2.86;77.81;100942.54;104339;1104;78979;-60
2021/05/09 02:38:07;;;;;;;19.30;11.90;;;;;;;2.85;77.66;100941.72;104365;1104;78866;-60
2021/05/09 02:40:16;;;;;;;18.60;12.30;;;;;;;2.82;77.74;100941.97;104377;1096;77501;-60
2021/05/09 02:42:21;;;;;;;22.00;12.30;;;;;;;2.82;77.72;100936.63;104408;1096;78978;-60
2021/05/09 02:44:27;;;;;;;18.10;11.80;;;;;;;2.82;77.44;100935.78;104396;1104;77322;-72
2021/05/09 02:46:33;;;;;;;18.80;12.40;;;;;;;2.84;77.89;100937.34;104372;1104;77148;-70
2021/05/09 02:48:39;;;;;;;20.10;13.00;;;;;;;2.87;77.85;100930.91;104369;1104;78331;-70
2021/05/09 02:50:44;;;;;;;18.80;12.80;;;;;;;2.86;77.69;100942.54;104347;1104;77275;-60
2021/05/09 02:52:50;;;;;;;22.80;13.70;;;;;;;2.88;77.79;100941.44;104387;1096;78693;-60
2021/05/09 02:54:56;;;;;;;21.10;14.20;;;;;;;2.90;77.76;100934.18;104360;1104;78203;-71
2021/05/09 02:57:01;;;;;;;19.70;12.80;;;;;;;2.94;77.52;100934.75;104396;1104;78774;-70
2021/05/09 02:59:07;;;;;;;20.10;13.70;;;;;;;2.95;77.47;100931.97;104376;1104;79122;-60
2021/05/09 03:01:12;;;;;;;20.70;13.30;;;;;;;2.97;77.63;100935.34;104352;1104;78920;-60
2021/05/09 03:03:19;;;;;;;17.30;11.50;;;;;;;2.92;77.65;100950.05;104395;1104;78771;-60
2021/05/09 03:05:24;;;;;;;16.90;11.10;;;;;;;2.83;77.72;100951.65;104380;1104;77188;-71
2021/05/09 03:07:31;;;;;;;15.70;12.00;;;;;;;2.77;77.70;100949.52;104360;1104;79341;-71
2021/05/09 03:09:37;;;;;;;16.60;11.00;;;;;;;2.70;77.52;100953.64;104356;1098;78160;-71
2021/05/09 03:11:43;;;;;;;14.90;10.30;;;;;;;2.60;77.44;100950.03;104396;1104;79348;-71
2021/05/09 03:13:48;;;;;;;17.50;11.30;;;;;;;2.60;77.48;100963.38;104367;1104;79672;-71
2021/05/09 03:15:54;;;;;;;18.00;10.80;;;;;;;2.59;77.60;100958.14;104387;1096;78704;-60
2021/05/09 03:18:00;;;;;;;14.30;10.40;;;;;;;2.60;77.71;100957.19;104366;1104;78409;-60
2021/05/09 03:20:09;;;;;;;16.10;11.50;;;;;;;2.61;77.84;100959.71;104343;1104;78908;-60
2021/05/09 03:22:16;;;;;;;16.20;10.50;;;;;;;2.63;77.71;100963.13;104390;1103;79070;-60
2021/05/09 03:24:22;;;;;;;16.30;11.60;;;;;;;2.68;77.68;100960.92;104392;1104;79763;-60
2021/05/09 03:26:27;;;;;;;19.50;11.80;;;;;;;2.68;77.92;100960.07;104381;1104;78499;-60
2021/05/09 03:28:33;;;;;;;16.00;10.90;;;;;;;2.72;77.88;100958.86;104325;1104;79094;-60
2021/05/09 03:30:39;;;;;;;17.60;12.90;;;;;;;2.86;77.84;100962.07;104361;1104;77667;-60
2021/05/09 03:32:47;;;;;;;17.50;12.10;;;;;;;3.01;78.07;100965.30;104357;1104;77076;-60
2021/05/09 03:34:53;;;;;;;20.10;11.50;;;;;;;3.11;78.31;100957.36;104354;1104;79416;-60
2021/05/09 03:36:58;;;;;;;17.70;12.60;;;;;;;3.22;78.12;100960.84;104393;1104;77266;-59
2021/05/09 03:39:05;;;;;;;15.10;11.90;;;;;;;3.34;78.14;100967.83;104335;1104;78296;-63
2021/05/09 03:41:10;;;;;;;17.70;12.50;;;;;;;3.96;78.65;100959.77;104364;1104;76875;-60
2021/05/09 03:43:16;;;;;;;19.70;12.10;;;;;;;5.23;78.96;100952.73;104400;1104;78805;-60
2021/05/09 03:45:21;;;;;;;19.30;11.60;;;;;;;6.37;78.12;100951.59;104376;1097;78341;-60
2021/05/09 03:47:28;;;;;;;17.10;11.80;;;;;;;7.25;77.37;100945.48;104388;1104;77996;-60
2021/05/09 03:49:33;;;;;;;18.20;12.70;;;;;;;7.85;76.43;100945.63;104377;1096;78457;-60
2021/05/09 03:51:40;;;;;;;16.50;11.80;;;;;;;8.52;75.42;100942.96;104350;1104;77444;-60
2021/05/09 03:53:46;;;;;;;15.90;11.40;;;;;;;9.23;74.54;100939.77;104348;1104;78828;-60
2021/05/09 03:55:51;;;;;;;17.40;11.90;;;;;;;9.90;73.04;100941.23;104393;1104;79325;-71
2021/05/09 03:57:57;;;;;;;16.90;12.30;;;;;;;10.63;72.34;100936.44;104363;1104;78952;-73
2021/05/09 04:00:04;;;;;;;16.30;12.20;;;;;;;11.20;70.91;100935.09;104340;1104;78611;-72
2021/05/09 04:02:10;;;;;;;16.00;11.60;;;;;;;11.75;70.02;100942.95;104402;1104;80355;-73
2021/05/09 04:04:16;;;;;;;15.40;11.80;;;;;;;12.33;68.67;100944.84;104348;1096;78362;-61
2021/05/09 04:06:22;;;;;;;16.50;11.40;;;;;;;12.81;66.94;100929.83;104340;1104;78866;-61
2021/05/09 04:08:29;;;;;;;22.90;13.10;;;;;;;13.22;65.98;100931.97;104352;1096;78322;-61
2021/05/09 04:10:34;;;;;;;16.40;12.20;;;;;;;13.54;64.77;100932.27;104352;1104;78699;-60
2021/05/09 04:12:40;;;;;;;17.70;13.10;;;;;;;13.90;63.24;100928.63;104347;1104;77814;-60
2021/05/09 04:14:45;;;;;;;16.80;11.80;;;;;;;13.90;62.36;100924.00;104341;1104;78414;-71
2021/05/09 04:16:51;;;;;;;15.20;12.40;;;;;;;14.13;61.11;100915.59;104346;1104;77802;-71
2021/05/09 04:18:56;;;;;;;14.00;11.70;;;;;;;14.10;60.12;100913.27;104373;1104;78510;-71
2021/05/09 04:21:02;;;;;;;15.40;12.10;;;;;;;13.72;58.58;100917.39;104316;1099;76809;-71
2021/05/09 04:23:17;;;;;;;14.90;12.00;;;;;;;13.51;58.72;100910.95;104323;1104;78608;-73
2021/05/09 04:25:23;;;;;;;15.10;11.30;;;;;;;13.72;58.64;100909.24;104390;1104;77752;-72
2021/05/09 04:27:28;;;;;;;14.30;11.70;;;;;;;13.58;57.23;100903.72;104376;1104;76912;-71
2021/05/09 04:29:34;;;;;;;15.10;11.40;;;;;;;13.60;58.39;100915.21;104379;1096;77919;-60
2021/05/09 04:31:41;;;;;;;14.70;11.60;;;;;;;14.04;57.96;100911.34;104329;1104;78021;-60
2021/05/09 04:33:46;;;;;;;15.90;10.40;;;;;;;15.02;57.21;100911.00;104365;1104;77505;-60
2021/05/09 04:35:52;;;;;;;13.40;10.40;;;;;;;15.97;56.54;100914.21;104374;1104;78015;-60
2021/05/09 04:37:59;;;;;;;14.70;11.00;;;;;;;16.70;54.68;100912.97;104375;1104;77357;-62
2021/05/09 04:40:06;;;;;;;12.20;9.90;;;;;;;17.38;53.19;100913.22;104353;1104;78406;-61
2021/05/09 04:42:11;;;;;;;13.90;9.80;;;;;;;17.90;51.81;100903.78;104410;1096;78293;-61
2021/05/09 04:44:18;;;;;;;13.30;10.00;;;;;;;18.40;50.32;100904.52;104351;1104;76931;-61
2021/05/09 04:46:24;;;;;;;12.10;9.10;;;;;;;18.78;49.15;100913.34;104354;1104;77731;-61
2021/05/09 04:48:30;;;;;;;13.80;8.50;;;;;;;18.99;48.81;100910.09;104373;1104;77921;-61
2021/05/09 04:50:36;;;;;;;11.00;8.80;;;;;;;19.72;47.88;100905.19;104376;1096;77702;-61
2021/05/09 04:52:42;;;;;;;12.90;9.60;;;;;;;20.18;45.75;100901.63;104363;1104;77470;-61
2021/05/09 04:54:47;;;;;;;11.80;8.70;;;;;;;20.22;44.44;100908.30;104377;1104;77087;-72
2021/05/09 04:56:53;;;;;;;10.90;8.30;;;;;;;20.37;44.34;100908.68;104359;1104;78732;-72
2021/05/09 04:59:00;;;;;;;11.50;8.30;;;;;;;20.62;42.95;100915.79;104351;1096;78579;-72
2021/05/09 05:01:08;;;;;;;9.80;7.90;;;;;;;20.51;43.51;100915.58;104372;1104;78382;-60
2021/05/09 05:03:14;;;;;;;9.90;7.80;;;;;;;20.74;41.52;100914.66;104358;1104;78197;-60
2021/05/09 05:05:19;;;;;;;9.40;7.60;;;;;;;21.05;42.10;100916.95;104371;1104;78689;-61
2021/05/09 05:07:26;;;;;;;10.70;7.30;;;;;;;21.64;41.74;100904.60;104367;1104;77330;-60
2021/05/09 05:09:31;;;;;;;8.40;7.20;;;;;;;22.14;40.19;100909.27;104379;1096;77267;-60
2021/05/09 05:11:37;;;;;;;9.60;7.40;;;;;;;22.30;39.05;100905.64;104394;1104;77608;-60
2021/05/09 05:13:45;;;;;;;9.70;6.80;;;;;;;22.62;39.07;100898.36;104378;1104;78846;-61
2021/05/09 05:15:53;;;;;;;9.70;7.40;;;;;;;23.37;37.93;100897.57;104371;1104;78827;-60
2021/05/09 05:18:01;;;;;;;7.70;6.60;;;;;;;23.33;36.98;100910.20;104401;1096;78801;-61
2021/05/09 05:20:09;;;;;;;9.60;6.70;;;;;;;22.91;35.22;100913.61;104370;1104;79151;-74
2021/05/09 05:22:15;;;;;;;9.50;6.60;;;;;;;23.40;35.59;100899.84;104403;1104;78634;-73
2021/05/09 05:24:21;;;;;;;7.30;6.00;;;;;;;23.37;35.24;100903.08;104385;1096;78538;-73
2021/05/09 05:26:26;;;;;;;7.00;6.10;;;;;;;23.64;35.26;100903.08;104389;1104;77101;-73
2021/05/09 05:28:32;;;;;;;7.60;6.30;;;;;;;23.98;34.58;100899.75;104352;1104;78581;-72
2021/05/09 05:30:38;;;;;;;9.70;6.90;;;;;;;24.13;31.26;100901.82;104384;1104;79056;-73
2021/05/09 05:32:46;;;;;;;7.40;5.80;;;;;;;24.38;32.50;100898.38;104392;1104;78233;-74
2021/05/09 05:34:52;;;;;;;6.50;5.60;;;;;;;24.85;32.54;100892.81;104420;1104;77360;-72
2021/05/09 05:37:01;;;;;;;6.90;5.60;;;;;;;25.34;32.36;100890.44;104360;1104;79232;-72
2021/05/09 05:39:08;;;;;;;6.50;5.50;;;;;;;25.37;31.27;100893.48;104354;1104;78476;-72
2021/05/09 05:41:16;;;;;;;8.50;6.00;;;;;;;25.83;30.69;100894.35;104404;1104;77433;-73
2021/05/09 05:43:28;;;;;;;7.20;5.70;;;;;;;25.40;28.40;100895.71;104386;1104;77980;-74
2021/05/09 05:45:33;;;;;;;7.50;5.90;;;;;;;25.09;30.11;100892.05;104347;1104;77870;-61
2021/05/09 05:47:39;;;;;;;6.30;5.20;;;;;;;25.38;29.85;100897.09;104423;1104;78458;-60
2021/05/09 05:49:45;;;;;;;6.90;5.70;;;;;;;25.29;29.41;100893.20;104351;1104;78078;-73
2021/05/09 05:51:51;;;;;;;7.10;5.10;;;;;;;25.68;29.23;100891.61;104361;1104;77876;-72
2021/05/09 05:53:58;;;;;;;6.30;5.60;;;;;;;26.11;28.84;100890.16;104385;1104;77744;-73
2021/05/09 05:56:05;;;;;;;6.00;4.90;;;;;;;26.02;27.31;100878.82;104400;1104;77151;-61
2021/05/09 05:58:11;;;;;;;7.10;6.00;;;;;;;25.64;28.74;100882.19;104363;1104;79040;-61
2021/05/09 06:00:20;;;;;;;8.30;5.00;;;;;;;25.87;27.93;100883.56;104403;1104;78577;-73
2021/05/09 06:02:25;;;;;;;5.80;5.20;;;;;;;25.83;26.98;100883.28;104383;1104;77111;-73
2021/05/09 06:04:34;;;;;;;8.20;5.80;;;;;;;25.22;27.19;100894.29;104366;1104;77420;-61
2021/05/09 06:06:43;;;;;;;6.40;5.20;;;;;;;24.85;25.37;100887.29;104372;1104;77809;-60
2021/05/09 06:08:51;;;;;;;6.70;5.30;;;;;;;24.43;26.78;100890.11;104368;1104;78304;-61
2021/05/09 06:10:57;;;;;;;7.90;5.70;;;;;;;24.79;26.94;100894.73;104364;1104;78116;-72
2021/05/09 06:13:08;;;;;;;5.90;5.40;;;;;;;25.50;25.04;100883.84;104418;1104;79467;-72
2021/05/09 06:15:15;;;;;;;6.50;5.20;;;;;;;25.84;26.51;100876.64;104362;1104;77004;-60
2021/05/09 06:17:21;;;;;;;6.50;5.00;;;;;;;26.15;24.35;100875.50;104366;1104;78899;-61
2021/05/09 06:19:27;;;;;;;6.80;5.30;;;;;;;25.97;24.73;100878.00;104348;1104;77165;-72
2021/05/09 06:21:33;;;;;;;6.00;5.20;;;;;;;26.21;25.67;100865.23;104334;1104;77484;-73
2021/05/09 06:23:38;;;;;;;6.00;5.20;;;;;;;26.62;25.09;100865.91;104308;1104;78355;-72
2021/05/09 06:25:44;;;;;;;5.40;4.70;;;;;;;26.89;24.95;100867.20;104361;1104;79043;-72
2021/05/09 06:27:49;;;;;;;6.10;5.00;;;;;;;27.27;24.85;100868.36;104319;1104;78293;-73
2021/05/09 06:29:55;;;;;;;7.40;5.50;;;;;;;27.23;23.69;100860.89;104336;1104;78067;-62
2021/05/09 06:32:00;;;;;;;7.00;6.00;;;;;;;26.61;24.50;100873.42;104364;1104;79399;-62
2021/05/09 06:34:07;;;;;;;7.60;5.50;;;;;;;26.93;24.52;100864.69;104331;1104;79144;-69
2021/05/09 06:36:12;;;;;;;7.30;5.60;;;;;;;27.11;24.08;100863.20;104364;1104;77752;-72
2021/05/09 06:38:18;;;;;;;7.00;5.50;;;;;;;25.76;24.36;100855.91;104339;1104;77594;-71
2021/05/09 06:40:24;;;;;;;7.40;5.50;;;;;;;25.49;24.82;100854.53;104364;1096;79221;-70
2021/05/09 06:42:30;;;;;;;6.90;5.50;;;;;;;26.06;25.14;100849.48;104380;1104;78934;-71
2021/05/09 06:44:40;;;;;;;8.20;5.80;;;;;;;26.33;24.00;100849.98;104378;1104;78443;-71
2021/05/09 06:46:46;;;;;;;8.50;5.30;;;;;;;26.94;23.50;100853.33;104392;1104;76939;-74
2021/05/09 06:48:52;;;;;;;6.60;5.20;;;;;;;27.45;23.78;100845.48;104348;1104;78414;-73
2021/05/09 06:50:59;;;;;;;5.40;4.60;;;;;;;27.75;23.15;100847.16;104423;1104;77796;-60
2021/05/09 06:53:06;;;;;;;5.50;4.90;;;;;;;27.90;23.30;100858.14;104381;1096;77167;-60
2021/05/09 06:55:14;;;;;;;5.80;5.10;;;;;;;27.29;22.09;100846.70;104372;1096;78064;-60
2021/05/09 06:57:21;;;;;;;6.50;5.00;;;;;;;27.28;22.91;100849.74;104372;1104;76897;-62
2021/05/09 06:59:26;;;;;;;5.90;4.30;;;;;;;28.07;23.46;100843.83;104400;1104;77360;-71
2021/05/09 07:01:35;;;;;;;6.30;5.50;;;;;;;28.64;22.53;100854.84;104371;1104;79647;-71
2021/05/09 07:03:41;;;;;;;6.70;5.00;;;;;;;28.47;22.08;100846.13;104390;1104;78050;-72
2021/05/09 07:05:46;;;;;;;6.40;5.00;;;;;;;28.29;20.59;100848.86;104373;1104;79510;-60
2021/05/09 07:07:54;;;;;;;6.70;5.10;;;;;;;27.87;22.10;100846.78;104357;1104;79257;-62
2021/05/09 07:10:03;;;;;;;6.30;5.20;;;;;;;27.88;21.73;100845.67;104367;1104;78842;-71
2021/05/09 07:12:10;;;;;;;7.20;5.70;;;;;;;27.85;22.26;100854.58;104375;1104;77616;-73
2021/05/09 07:14:16;;;;;;;7.50;6.20;;;;;;;27.51;22.73;100837.95;104428;1104;77231;-70
2021/05/09 07:16:23;;;;;;;6.80;5.00;;;;;;;28.02;22.47;100843.83;104393;1096;78714;-73
2021/05/09 07:18:30;;;;;;;6.60;5.20;;;;;;;28.95;22.47;100848.86;104400;1096;77916;-74
2021/05/09 07:20:40;;;;;;;7.00;4.50;;;;;;;28.80;21.94;100840.71;104346;1104;76725;-72
2021/05/09 07:22:52;;;;;;;5.70;4.90;;;;;;;28.73;21.23;100840.27;104412;1104;76705;-73
2021/05/09 07:24:58;;;;;;;5.70;5.10;;;;;;;29.30;21.81;100837.21;104387;1104;77847;-62
2021/05/09 07:27:04;;;;;;;8.10;5.30;;;;;;;29.68;21.42;100833.22;104368;1096;79589;-61
2021/05/09 07:29:09;;;;;;;6.60;4.60;;;;;;;29.62;20.74;100850.31;104389;1104;78561;-71
2021/05/09 07:31:16;;;;;;;6.20;4.70;;;;;;;29.29;20.71;100841.11;104372;1104;77734;-73
2021/05/09 07:33:22;;;;;;;4.70;4.20;;;;;;;29.31;19.79;100840.83;104350;1104;77868;-74
2021/05/09 07:35:28;;;;;;;6.00;4.50;;;;;;;29.10;21.20;100848.62;104364;1104;77025;-72
2021/05/09 07:37:33;;;;;;;5.70;4.50;;;;;;;29.02;19.23;100849.30;104390;1096;77726;-73
2021/05/09 07:39:39;;;;;;;4.50;4.00;;;;;;;28.54;20.12;100849.36;104382;1096;79576;-72
2021/05/09 07:41:44;;;;;;;5.60;4.80;;;;;;;28.49;21.32;100838.30;104400;1104;77840;-72
2021/05/09 07:43:50;;;;;;;6.50;4.50;;;;;;;28.92;20.74;100841.94;104346;1104;79169;-72
2021/05/09 07:45:56;;;;;;;7.00;4.80;;;;;;;29.05;21.19;100845.92;104385;1104;77713;-60
2021/05/09 07:48:06;;;;;;;5.10;4.30;;;;;;;28.90;20.43;100848.94;104393;1096;79472;-62
2021/05/09 07:50:13;;;;;;;6.80;4.50;;;;;;;29.15;18.74;100823.48;104402;1104;77020;-72
2021/05/09 07:52:19;;;;;;;5.70;4.40;;;;;;;28.85;20.54;100835.08;104417;1104;79213;-70
2021/05/09 07:54:28;;;;;;;5.10;4.00;;;;;;;29.36;20.49;100827.66;104411;1096;77418;-62
2021/05/09 07:56:36;;;;;;;6.00;4.80;;;;;;;29.43;19.86;100808.59;104378;1104;78304;-59
2021/05/09 07:58:42;;;;;;;6.90;4.90;;;;;;;28.71;20.07;100815.52;104406;1104;77382;-61
2021/05/09 08:00:52;;;;;;;5.90;4.60;;;;;;;28.77;20.71;100808.77;104404;1104;78578;-73
2021/05/09 08:03:00;;;;;;;5.00;4.40;;;;;;;28.60;20.88;100816.75;104373;1104;77115;-72
2021/05/09 08:05:08;;;;;;;5.80;4.40;;;;;;;28.52;20.58;100822.98;104398;1094;79330;-74
2021/05/09 08:07:14;;;;;;;6.50;4.20;;;;;;;28.53;19.73;100814.36;104363;1104;78229;-71
2021/05/09 08:09:22;;;;;;;5.10;4.00;;;;;;;28.31;18.64;100811.31;104374;1104;78657;-59
2021/05/09 08:11:28;;;;;;;5.00;4.30;;;;;;;28.26;20.96;100811.38;104371;1096;77923;-58
2021/05/09 08:13:33;;;;;;;6.50;4.50;;;;;;;28.46;19.77;100822.22;104311;1104;77881;-59
2021/05/09 08:15:40;;;;;;;6.40;4.20;;;;;;;28.12;19.93;100809.59;104316;1104;78893;-71
2021/05/09 08:17:46;;;;;;;4.60;4.10;;;;;;;28.26;20.50;100803.04;104380;1104;77828;-74
2021/05/09 08:19:51;;;;;;;4.40;3.90;;;;;;;28.42;20.88;100803.67;104399;1096;78548;-73
2021/05/09 08:21:57;;;;;;;5.90;4.40;;;;;;;28.57;20.82;100801.50;104379;1104;76762;-73
2021/05/09 08:24:08;;;;;;;4.70;4.20;;;;;;;28.83;19.77;100792.83;104385;1096;79109;-74
2021/05/09 08:26:13;;;;;;;4.70;4.00;;;;;;;28.68;20.21;100791.92;104374;1104;77567;-57
2021/05/09 08:28:19;;;;;;;6.20;4.10;;;;;;;28.60;18.73;100800.91;104402;1096;79840;-58
2021/05/09 08:30:26;;;;;;;4.50;4.10;;;;;;;28.27;19.75;100779.66;104374;1104;77624;-61
2021/05/09 08:32:32;;;;;;;4.20;3.70;;;;;;;27.44;19.33;100771.66;104376;1104;78004;-58
2021/05/09 08:34:41;;;;;;;4.10;3.60;;;;;;;26.78;19.20;100787.96;104328;1096;78770;-74
2021/05/09 08:36:46;;;;;;;4.30;3.90;;;;;;;26.12;20.15;100797.67;104386;1104;77810;-74
2021/05/09 08:38:52;;;;;;;4.10;3.70;;;;;;;25.67;21.36;100787.53;104325;1104;78538;-73
2021/05/09 08:40:59;;;;;;;4.50;4.10;;;;;;;25.53;20.89;100791.98;104348;1104;78263;-73
2021/05/09 08:43:05;;;;;;;3.80;3.40;;;;;;;25.27;20.89;100799.45;104336;1104;77099;-75
2021/05/09 08:45:13;;;;;;;4.20;3.70;;;;;;;25.04;21.21;100798.05;104338;1104;78435;-76
2021/05/09 08:47:21;;;;;;;5.20;3.50;;;;;;;25.08;22.53;100801.91;104387;1104;77233;-73
2021/05/09 08:49:29;;;;;;;4.90;3.60;;;;;;;25.78;22.95;100800.25;104381;1104;78775;-60
2021/05/09 08:51:38;;;;;;;4.60;3.90;;;;;;;26.29;20.90;100807.31;104376;1101;77236;-60
2021/05/09 08:53:46;;;;;;;3.70;3.30;;;;;;;26.42;22.58;100807.83;104369;1104;77037;-60
2021/05/09 08:55:52;;;;;;;4.70;3.80;;;;;;;26.47;21.27;100794.78;104177;1097;77518;-75
2021/05/09 08:57:58;;;;;;;3.90;3.30;;;;;;;26.64;23.01;100799.95;104125;1104;77482;-71
2021/05/09 09:00:06;;;;;;;4.30;3.90;;;;;;;26.53;21.28;100779.80;104298;1104;78047;-61
2021/05/09 09:02:14;;;;;;;4.10;3.60;;;;;;;26.30;21.52;100788.76;104369;1104;77544;-61
2021/05/09 09:04:20;;;;;;;4.40;3.80;;;;;;;26.13;21.29;100772.48;104346;1104;79389;-61
2021/05/09 09:06:43;;;;;;;3.90;3.50;;;;;;;26.59;21.83;100780.59;104394;1102;77243;-62
2021/05/09 09:08:53;;;;;;;4.30;3.90;;;;;;;26.41;21.85;100770.98;104408;1104;76961;-62
2021/05/09 09:10:58;;;;;;;5.50;3.30;;;;;;;26.83;21.24;100770.48;104401;1101;76974;-61
2021/05/09 09:13:21;;;;;;;3.80;3.20;;;;;;;26.51;21.81;100765.37;104402;1104;79680;-62
2021/05/09 09:15:42;;;;;;;4.30;3.60;;;;;;;26.25;21.40;100763.85;104437;1102;77004;-61
2021/05/09 09:17:48;;;;;;;5.40;3.90;;;;;;;25.94;21.21;100760.34;104423;1096;77548;-61
2021/05/09 09:20:17;;;;;;;7.30;5.90;;;;;;;25.61;22.12;100772.05;104372;1104;78909;-71
2021/05/09 09:22:22;;;;;;;5.10;3.80;;;;;;;24.52;23.02;100775.25;104342;1101;77833;-62
2021/05/09 09:24:28;;;;;;;5.00;3.20;;;;;;;24.31;24.31;100770.77;104395;1102;77840;-61
2021/05/09 09:26:40;;;;;;;4.50;3.30;;;;;;;24.30;23.18;100782.91;104421;1104;78870;-62
2021/05/09 09:28:45;;;;;;;4.60;3.20;;;;;;;23.85;23.72;100777.95;104384;1101;77308;-62
2021/05/09 09:30:54;;;;;;;5.30;3.00;;;;;;;23.74;23.49;100779.83;104278;1102;78208;-74
2021/05/09 09:33:15;;;;;;;4.50;3.10;;;;;;;23.52;24.24;100781.05;104414;1101;77842;-68
2021/05/09 09:35:30;;;;;;;4.20;3.40;;;;;;;22.91;24.33;100778.59;104312;1102;78504;-61
2021/05/09 09:37:36;;;;;;;5.80;3.50;;;;;;;22.72;25.46;100771.79;104385;1101;77297;-60
2021/05/09 09:39:50;;;;;;;4.60;3.00;;;;;;;22.98;25.82;100778.39;104366;1104;78006;-69
2021/05/09 09:41:56;;;;;;;4.50;3.00;;;;;;;22.75;26.03;100781.45;104402;1104;77730;-69